createdAt,value
2018-12-01T00:00:31.603Z,28.63
2018-12-01T00:03:02.117Z,31.97
2018-12-01T00:05:33.946Z,31.60
2018-12-01T00:08:05.976Z,28.63
2018-12-01T00:10:36.910Z,27.93
2018-12-01T00:13:06.829Z,28.60
2018-12-01T00:15:38.699Z,29.17
2018-12-01T00:18:10.999Z,28.57
2018-12-01T00:20:41.767Z,30.17
2018-12-01T00:23:14.277Z,31.90
2018-12-01T00:25:46.168Z,28.83
2018-12-01T00:28:17.052Z,28.07
2018-12-01T00:30:52.320Z,31.07
2018-12-01T00:33:23.813Z,31.03
2018-12-01T00:35:54.958Z,29.87
2018-12-01T00:38:25.018Z,32.43
2018-12-01T00:40:56.319Z,30.80
2018-12-01T00:43:27.973Z,34.27
2018-12-01T00:45:57.598Z,30.83
2018-12-01T00:48:28.645Z,30.80
2018-12-01T00:50:59.061Z,31.43
2018-12-01T00:53:30.412Z,30.30
2018-12-01T00:56:00.243Z,29.10
2018-12-01T00:58:34.969Z,34.40
2018-12-01T01:01:07.064Z,32.73
2018-12-01T01:03:37.044Z,32.80
2018-12-01T01:06:08.632Z,33.37
2018-12-01T01:08:38.227Z,34.43
2018-12-01T01:11:18.155Z,33.50
2018-12-01T01:13:54.043Z,32.53
2018-12-01T01:23:36.882Z,33.53
2018-12-01T01:26:16.695Z,33.57
2018-12-01T01:29:00.786Z,33.27
2018-12-01T01:31:33.265Z,31.67
2018-12-01T01:34:04.951Z,31.80
2018-12-01T01:36:35.347Z,32.73
2018-12-01T01:39:08.671Z,32.53
2018-12-01T01:41:41.500Z,31.80
2018-12-01T01:44:14.150Z,32.30
2018-12-01T01:46:46.509Z,35.87
2018-12-01T01:49:18.226Z,31.57
2018-12-01T01:51:48.636Z,33.70
2018-12-01T01:54:18.968Z,31.70
2018-12-01T01:56:49.504Z,35.00
2018-12-01T01:59:20.607Z,42.20
2018-12-01T02:01:50.800Z,35.90
2018-12-01T02:04:20.428Z,30.00
2018-12-01T02:06:51.195Z,30.30
2018-12-01T02:09:21.423Z,36.27
2018-12-01T02:11:52.311Z,32.73
2018-12-01T02:14:26.308Z,34.27
2018-12-01T02:16:57.955Z,32.23
2018-12-01T02:19:27.543Z,32.10
2018-12-01T02:21:58.588Z,35.93
2018-12-01T02:24:29.417Z,33.00
2018-12-01T02:26:59.377Z,34.50
2018-12-01T02:29:30.318Z,33.40
2018-12-01T02:32:01.456Z,33.20
2018-12-01T02:34:30.508Z,33.80
2018-12-01T02:37:01.468Z,31.77
2018-12-01T02:39:33.057Z,31.33
2018-12-01T02:42:03.713Z,32.97
2018-12-01T02:44:59.816Z,34.80
2018-12-01T02:47:31.544Z,39.47
2018-12-01T02:50:02.076Z,31.80
2018-12-01T02:52:31.778Z,34.10
2018-12-01T02:55:03.563Z,36.20
2018-12-01T02:57:38.644Z,32.13
2018-12-01T03:00:12.324Z,31.47
2018-12-01T03:02:43.707Z,35.60
2018-12-01T03:05:13.954Z,36.30
2018-12-01T03:07:45.070Z,33.77
2018-12-01T03:10:15.624Z,34.00
2018-12-01T03:12:45.678Z,31.80
2018-12-01T03:15:18.665Z,32.03
2018-12-01T03:17:50.815Z,34.83
2018-12-01T03:20:20.769Z,34.77
2018-12-01T03:22:51.709Z,29.70
2018-12-01T03:25:23.186Z,31.43
2018-12-01T03:27:56.010Z,38.20
2018-12-01T03:30:27.831Z,35.83
2018-12-01T03:32:58.781Z,34.30
2018-12-01T03:35:29.747Z,37.17
2018-12-01T03:38:02.120Z,35.13
2018-12-01T03:40:49.096Z,33.77
2018-12-01T03:43:18.900Z,35.77
2018-12-01T03:45:50.810Z,33.53
2018-12-01T03:48:20.584Z,36.80
2018-12-01T03:50:57.529Z,39.60
2018-12-01T03:53:29.090Z,37.80
2018-12-01T03:55:59.010Z,38.20
2018-12-01T03:58:30.009Z,40.33
2018-12-01T04:01:01.190Z,36.37
2018-12-01T04:03:31.388Z,38.77
2018-12-01T04:06:04.805Z,37.87
2018-12-01T04:08:34.902Z,42.10
2018-12-01T04:11:06.772Z,40.67
2018-12-01T04:13:39.019Z,41.40
2018-12-01T04:16:09.850Z,34.47
2018-12-01T04:18:41.988Z,39.33
2018-12-01T04:21:13.977Z,38.87
2018-12-01T04:23:44.692Z,43.27
2018-12-01T04:26:15.068Z,39.20
2018-12-01T04:28:46.100Z,41.20
2018-12-01T04:31:16.095Z,35.97
2018-12-01T04:33:47.062Z,35.93
2018-12-01T04:36:18.005Z,39.43
2018-12-01T04:38:48.647Z,43.23
2018-12-01T04:41:19.087Z,40.97
2018-12-01T04:43:50.107Z,40.50
2018-12-01T04:46:21.327Z,42.37
2018-12-01T04:48:50.993Z,38.47
2018-12-01T04:51:20.687Z,41.07
2018-12-01T04:53:50.278Z,44.10
2018-12-01T04:56:20.109Z,37.40
2018-12-01T04:58:51.226Z,34.27
2018-12-01T05:01:20.810Z,40.07
2018-12-01T05:03:53.234Z,41.47
2018-12-01T05:06:24.101Z,40.37
2018-12-01T05:08:56.037Z,38.57
2018-12-01T05:11:26.728Z,38.97
2018-12-01T05:13:57.070Z,41.63
2018-12-01T05:16:27.447Z,39.63
2018-12-01T05:18:58.306Z,36.93
2018-12-01T05:21:28.889Z,41.30
2018-12-01T05:23:59.412Z,41.20
2018-12-01T05:26:30.039Z,37.43
2018-12-01T05:29:00.374Z,39.20
2018-12-01T05:31:30.597Z,46.33
2018-12-01T05:34:01.394Z,43.73
2018-12-01T05:36:32.764Z,43.40
2018-12-01T05:39:03.502Z,43.33
2018-12-01T05:41:34.096Z,39.97
2018-12-01T05:44:04.352Z,37.77
2018-12-01T05:46:35.328Z,39.90
2018-12-01T05:49:06.011Z,46.97
2018-12-01T05:51:36.038Z,41.47
2018-12-01T05:54:10.651Z,42.60
2018-12-01T05:56:42.537Z,40.00
2018-12-01T05:59:20.551Z,43.63
2018-12-01T06:01:51.454Z,44.03
2018-12-01T06:04:21.144Z,42.80
2018-12-01T06:06:52.775Z,42.47
2018-12-01T06:09:24.621Z,39.40
2018-12-01T06:11:54.489Z,37.47
2018-12-01T06:14:24.550Z,43.90
2018-12-01T06:16:56.489Z,38.00
2018-12-01T06:19:27.777Z,41.40
2018-12-01T06:21:59.523Z,43.57
2018-12-01T06:24:29.966Z,41.40
2018-12-01T06:27:00.263Z,36.90
2018-12-01T06:29:31.395Z,39.00
2018-12-01T06:32:01.379Z,37.70
2018-12-01T06:34:31.002Z,40.40
2018-12-01T06:37:02.670Z,42.10
2018-12-01T06:39:33.342Z,44.90
2018-12-01T06:42:04.069Z,40.93
2018-12-01T06:44:33.737Z,41.20
2018-12-01T06:47:04.554Z,41.57
2018-12-01T06:49:35.582Z,45.10
2018-12-01T06:52:05.856Z,42.30
2018-12-01T06:54:36.788Z,40.50
2018-12-01T06:57:07.624Z,43.80
2018-12-01T06:59:37.910Z,48.90
2018-12-01T07:02:08.808Z,42.87
2018-12-01T07:04:39.674Z,43.43
2018-12-01T07:07:10.221Z,40.50
2018-12-01T07:09:47.151Z,42.50
2018-12-01T07:12:19.151Z,43.40
2018-12-01T07:14:48.890Z,53.93
2018-12-01T07:17:19.911Z,48.20
2018-12-01T07:19:49.686Z,46.70
2018-12-01T07:22:20.909Z,41.63
2018-12-01T07:24:51.805Z,45.83
2018-12-01T07:27:21.351Z,46.20
2018-12-01T07:29:57.968Z,37.63
2018-12-01T07:32:25.036Z,43.97
2018-12-01T07:34:56.959Z,46.07
2018-12-01T07:37:27.895Z,41.67
2018-12-01T07:39:57.762Z,37.93
2018-12-01T07:42:29.709Z,36.87
2018-12-01T07:44:59.340Z,43.47
2018-12-01T07:47:30.155Z,41.07
2018-12-01T07:50:00.194Z,42.80
2018-12-01T07:52:30.788Z,38.27
2018-12-01T07:55:00.835Z,49.17
2018-12-01T07:57:31.941Z,42.47
2018-12-01T08:00:02.267Z,43.90
2018-12-01T08:05:12.342Z,41.27
2018-12-01T08:07:43.377Z,44.93
2018-12-01T08:10:14.846Z,47.63
2018-12-01T08:12:45.159Z,48.33
2018-12-01T08:15:17.700Z,43.20
2018-12-01T08:17:49.267Z,45.03
2018-12-01T08:20:20.205Z,47.57
2018-12-01T08:22:50.980Z,41.30
2018-12-01T08:25:22.050Z,43.93
2018-12-01T08:27:53.732Z,45.97
2018-12-01T08:30:33.253Z,42.53
2018-12-01T08:33:02.880Z,43.83
2018-12-01T08:35:33.348Z,44.23
2018-12-01T08:38:04.310Z,48.47
2018-12-01T08:40:35.314Z,53.77
2018-12-01T08:43:05.518Z,46.67
2018-12-01T08:45:38.423Z,58.03
2018-12-01T08:48:09.577Z,42.40
2018-12-01T08:50:43.217Z,45.67
2018-12-01T08:53:13.242Z,41.00
2018-12-01T08:55:44.360Z,47.70
2018-12-01T08:58:15.359Z,52.50
2018-12-01T09:00:46.048Z,46.87
2018-12-01T09:03:20.031Z,50.03
2018-12-01T09:05:53.011Z,50.23
2018-12-01T09:08:24.311Z,48.53
2018-12-01T09:10:56.537Z,50.30
2018-12-01T09:13:27.322Z,50.23
2018-12-01T09:15:57.811Z,47.13
2018-12-01T09:18:28.538Z,50.07
2018-12-01T09:20:59.197Z,47.10
2018-12-01T09:23:30.014Z,44.07
2018-12-01T09:26:00.419Z,41.97
2018-12-01T09:28:30.623Z,43.87
2018-12-01T09:31:01.502Z,50.57
2018-12-01T09:33:32.617Z,46.77
2018-12-01T09:36:03.335Z,48.67
2018-12-01T09:38:33.946Z,42.67
2018-12-01T09:41:04.501Z,48.53
2018-12-01T09:43:35.267Z,45.90
2018-12-01T09:46:07.604Z,46.73
2018-12-01T09:48:38.567Z,48.67
2018-12-01T09:51:09.535Z,43.83
2018-12-01T09:53:40.550Z,45.47
2018-12-01T09:56:10.414Z,47.70
2018-12-01T09:58:41.596Z,44.00
2018-12-01T10:01:11.876Z,47.57
2018-12-01T10:03:43.787Z,48.43
2018-12-01T10:06:16.710Z,42.90
2018-12-01T10:08:46.617Z,41.63
2018-12-01T10:11:16.516Z,50.07
2018-12-01T10:13:47.744Z,55.97
2018-12-01T10:16:17.652Z,52.50
2018-12-01T10:18:48.748Z,46.43
2018-12-01T10:21:19.482Z,47.33
2018-12-01T10:23:50.709Z,53.63
2018-12-01T10:26:20.691Z,47.30
2018-12-01T10:28:50.738Z,48.90
2018-12-01T10:31:22.054Z,48.17
2018-12-01T10:33:52.579Z,50.57
2018-12-01T10:36:24.605Z,53.03
2018-12-01T10:38:56.574Z,51.80
2018-12-01T10:41:28.318Z,48.33
2018-12-01T10:44:00.897Z,53.87
2018-12-01T10:46:31.902Z,48.00
2018-12-01T10:49:03.810Z,48.23
2018-12-01T10:51:34.427Z,57.47
2018-12-01T10:54:07.123Z,51.60
2018-12-01T10:56:37.909Z,50.93
2018-12-01T10:59:08.856Z,47.80
2018-12-01T11:02:42.958Z,47.93
2018-12-01T11:05:13.000Z,48.57
2018-12-01T11:07:43.830Z,48.70
2018-12-01T11:10:16.482Z,53.50
2018-12-01T11:12:45.192Z,55.50
2018-12-01T11:15:16.631Z,53.40
2018-12-01T11:17:49.100Z,56.20
2018-12-01T11:20:19.747Z,49.37
2018-12-01T11:22:52.053Z,47.77
2018-12-01T11:25:22.036Z,50.43
2018-12-01T11:27:51.866Z,48.43
2018-12-01T11:30:21.647Z,56.17
2018-12-01T11:32:53.161Z,53.47
2018-12-01T11:35:25.126Z,57.60
2018-12-01T11:37:57.020Z,53.73
2018-12-01T11:40:28.056Z,49.80
2018-12-01T11:42:58.336Z,50.23
2018-12-01T11:45:28.314Z,50.27
2018-12-01T11:48:00.117Z,54.60
2018-12-01T11:50:30.890Z,56.80
2018-12-01T11:53:00.975Z,54.63
2018-12-01T11:55:33.224Z,61.23
2018-12-01T11:58:03.315Z,53.33
2018-12-01T12:00:33.115Z,51.00
2018-12-01T12:03:04.145Z,52.33
2018-12-01T12:05:35.541Z,53.23
2018-12-01T12:08:23.693Z,53.43
2018-12-01T12:10:55.854Z,61.90
2018-12-01T12:13:28.375Z,52.50
2018-12-01T12:15:58.140Z,55.27
2018-12-01T12:18:28.888Z,55.00
2018-12-01T12:20:59.109Z,52.87
2018-12-01T12:23:30.240Z,49.97
2018-12-01T12:26:01.278Z,66.30
2018-12-01T12:28:31.376Z,53.70
2018-12-01T12:31:01.757Z,54.47
2018-12-01T12:33:32.512Z,51.47
2018-12-01T12:36:03.038Z,58.03
2018-12-01T12:38:33.936Z,52.20
2018-12-01T12:41:08.115Z,53.50
2018-12-01T12:43:42.939Z,54.27
2018-12-01T12:46:17.340Z,54.43
2018-12-01T12:48:48.381Z,48.17
2018-12-01T12:51:19.804Z,53.50
2018-12-01T12:53:49.752Z,53.50
2018-12-01T12:56:20.081Z,49.47
2018-12-01T12:58:51.257Z,49.60
2018-12-01T13:01:21.487Z,55.13
2018-12-01T13:03:53.726Z,47.93
2018-12-01T13:06:25.477Z,50.77
2018-12-01T13:08:56.717Z,47.63
2018-12-01T13:11:30.898Z,53.40
2018-12-01T13:14:02.429Z,51.33
2018-12-01T13:16:32.409Z,56.90
2018-12-01T13:19:05.782Z,51.37
2018-12-01T13:21:37.416Z,57.10
2018-12-01T13:24:07.499Z,55.90
2018-12-01T13:26:37.733Z,55.87
2018-12-01T13:29:10.107Z,51.23
2018-12-01T13:31:43.289Z,57.17
2018-12-01T13:34:18.311Z,48.97
2018-12-01T13:36:53.222Z,56.50
2018-12-01T13:39:24.447Z,59.10
2018-12-01T13:41:56.563Z,57.90
2018-12-01T13:44:27.603Z,59.67
2018-12-01T13:46:57.495Z,57.03
2018-12-01T13:49:27.507Z,61.93
2018-12-01T13:51:58.424Z,57.83
2018-12-01T13:54:28.446Z,60.00
2018-12-01T13:57:01.321Z,53.73
2018-12-01T13:59:36.814Z,52.80
2018-12-01T14:02:08.169Z,57.27
2018-12-01T14:04:42.482Z,55.00
2018-12-01T14:07:14.905Z,57.30
2018-12-01T14:09:44.547Z,54.73
2018-12-01T14:12:16.112Z,51.70
2018-12-01T14:14:47.716Z,70.63
2018-12-01T14:17:20.231Z,58.00
2018-12-01T14:19:51.586Z,53.93
2018-12-01T14:22:22.349Z,56.63
2018-12-01T14:24:53.811Z,55.67
2018-12-01T14:27:25.587Z,56.33
2018-12-01T14:29:58.712Z,49.80
2018-12-01T14:32:31.938Z,55.23
2018-12-01T14:35:04.701Z,54.07
2018-12-01T14:37:34.676Z,59.17
2018-12-01T14:40:06.611Z,51.90
2018-12-01T14:42:36.324Z,62.77
2018-12-01T14:45:08.972Z,58.40
2018-12-01T14:47:40.511Z,52.97
2018-12-01T14:50:13.733Z,62.83
2018-12-01T14:52:44.326Z,58.20
2018-12-01T14:55:17.889Z,59.87
2018-12-01T14:57:49.334Z,62.90
2018-12-01T15:00:24.115Z,62.57
2018-12-01T15:02:56.058Z,55.03
2018-12-01T15:05:26.548Z,56.77
2018-12-01T15:07:56.229Z,57.10
2018-12-01T15:10:28.081Z,60.07
2018-12-01T15:13:02.606Z,55.27
2018-12-01T15:15:34.136Z,55.33
2018-12-01T15:18:04.146Z,57.20
2018-12-01T15:20:35.571Z,54.83
2018-12-01T15:23:12.361Z,60.00
2018-12-01T15:25:42.792Z,61.20
2018-12-01T15:28:13.723Z,68.93
2018-12-01T15:30:44.249Z,60.67
2018-12-01T15:33:15.470Z,55.20
2018-12-01T15:35:47.018Z,53.97
2018-12-01T15:38:21.922Z,60.03
2018-12-01T15:40:54.046Z,57.53
2018-12-01T15:43:26.058Z,55.20
2018-12-01T15:45:56.048Z,54.83
2018-12-01T15:48:31.352Z,54.63
2018-12-01T15:51:06.659Z,58.87
2018-12-01T15:53:37.383Z,56.03
2018-12-01T15:56:07.419Z,58.13
2018-12-01T15:58:38.827Z,59.07
2018-12-01T16:01:08.711Z,63.63
2018-12-01T16:03:39.351Z,61.57
2018-12-01T16:06:09.256Z,64.03
2018-12-01T16:08:40.236Z,55.33
2018-12-01T16:11:12.251Z,62.33
2018-12-01T16:13:49.646Z,58.50
2018-12-01T16:16:22.193Z,63.23
2018-12-01T16:18:53.187Z,55.83
2018-12-01T16:21:25.323Z,59.40
2018-12-01T16:23:58.112Z,58.60
2018-12-01T16:26:29.359Z,62.97
2018-12-01T16:29:02.801Z,57.03
2018-12-01T16:31:37.109Z,61.83
2018-12-01T16:34:10.476Z,55.03
2018-12-01T16:36:42.437Z,64.13
2018-12-01T16:39:13.228Z,75.17
2018-12-01T16:41:46.351Z,62.17
2018-12-01T16:44:17.061Z,64.33
2018-12-01T16:46:47.550Z,58.80
2018-12-01T16:49:18.266Z,66.83
2018-12-01T16:51:53.658Z,61.53
2018-12-01T16:54:27.586Z,65.33
2018-12-01T16:56:59.538Z,64.03
2018-12-01T16:59:34.862Z,59.90
2018-12-01T17:02:07.203Z,62.60
2018-12-01T17:04:37.538Z,68.37
2018-12-01T17:07:08.717Z,67.17
2018-12-01T17:09:38.611Z,58.73
2018-12-01T17:12:09.680Z,63.97
2018-12-01T17:14:40.574Z,63.90
2018-12-01T17:17:11.068Z,60.80
2018-12-01T17:19:41.839Z,60.53
2018-12-01T17:22:12.434Z,68.10
2018-12-01T17:24:48.159Z,62.90
2018-12-01T17:27:22.093Z,69.53
2018-12-01T17:29:53.455Z,71.87
2018-12-01T17:32:26.725Z,61.70
2018-12-01T17:34:56.682Z,63.07
2018-12-01T17:37:28.665Z,63.57
2018-12-01T17:40:01.204Z,67.23
2018-12-01T17:42:33.170Z,58.20
2018-12-01T17:45:03.612Z,61.63
2018-12-01T17:47:34.630Z,62.20
2018-12-01T17:50:11.913Z,58.87
2018-12-01T17:52:45.199Z,57.67
2018-12-01T17:55:17.712Z,61.40
2018-12-01T17:57:49.725Z,66.87
2018-12-01T18:00:20.981Z,62.90
2018-12-01T18:02:54.419Z,69.77
2018-12-01T18:05:35.327Z,62.13
2018-12-01T18:08:07.482Z,62.10
2018-12-01T18:10:40.768Z,64.80
2018-12-01T18:13:13.033Z,65.13
2018-12-01T18:15:43.823Z,62.00
2018-12-01T18:18:14.732Z,63.07
2018-12-01T18:20:45.151Z,66.03
2018-12-01T18:23:17.586Z,60.70
2018-12-01T18:25:52.010Z,66.17
2018-12-01T18:28:32.501Z,66.60
2018-12-01T18:31:05.721Z,64.03
2018-12-01T18:33:40.118Z,65.20
2018-12-01T18:36:12.812Z,60.77
2018-12-01T18:38:46.581Z,62.60
2018-12-01T18:41:18.867Z,69.97
2018-12-01T18:43:50.984Z,64.40
2018-12-01T18:46:22.711Z,66.77
2018-12-01T18:48:54.733Z,63.57
2018-12-01T18:51:26.461Z,78.53
2018-12-01T18:54:00.505Z,69.37
2018-12-01T18:56:32.711Z,70.60
2018-12-01T18:59:02.971Z,81.17
2018-12-01T19:01:34.462Z,95.37
2018-12-01T19:04:04.132Z,92.93
2018-12-01T19:06:34.499Z,64.23
2018-12-01T19:09:06.605Z,87.23
2018-12-01T19:11:38.867Z,68.97
2018-12-01T19:14:14.265Z,65.67
2018-12-01T19:16:46.133Z,67.27
2018-12-01T19:19:21.347Z,69.10
2018-12-01T19:21:53.097Z,60.43
2018-12-01T19:24:23.450Z,70.80
2018-12-01T19:26:54.202Z,70.30
2018-12-01T19:29:24.605Z,69.77
2018-12-01T19:31:55.130Z,73.70
2018-12-01T19:34:25.112Z,62.20
2018-12-01T19:36:56.474Z,78.80
2018-12-01T19:39:27.350Z,73.80
2018-12-01T19:41:57.943Z,72.07
2018-12-01T19:44:28.033Z,86.90
2018-12-01T19:46:59.115Z,72.70
2018-12-01T19:49:29.814Z,77.67
2018-12-01T19:52:01.586Z,75.67
2018-12-01T19:54:32.148Z,82.10
2018-12-01T19:57:02.775Z,74.87
2018-12-01T19:59:33.005Z,82.67
2018-12-01T20:02:03.358Z,72.40
2018-12-01T20:04:33.788Z,80.53
2018-12-01T20:07:05.270Z,76.60
2018-12-01T20:09:40.015Z,78.50
2018-12-01T20:12:11.675Z,81.10
2018-12-01T20:14:45.231Z,72.17
2018-12-01T20:17:15.243Z,78.33
2018-12-01T20:19:46.320Z,81.30
2018-12-01T20:22:16.489Z,84.90
2018-12-01T20:24:46.219Z,81.20
2018-12-01T20:27:17.359Z,91.03
2018-12-01T20:29:47.518Z,77.37
2018-12-01T20:32:18.246Z,75.73
2018-12-01T20:34:56.636Z,83.57
2018-12-01T20:37:29.352Z,85.90
2018-12-01T20:39:59.381Z,84.60
2018-12-01T20:42:29.270Z,83.50
2018-12-01T20:45:02.144Z,84.57
2018-12-01T20:47:34.643Z,87.33
2018-12-01T20:50:10.299Z,88.20
2018-12-01T20:52:51.810Z,86.00
2018-12-01T20:55:25.030Z,78.83
2018-12-01T20:57:59.443Z,83.67
2018-12-01T21:00:32.524Z,80.97
2018-12-01T21:03:04.688Z,87.00
2018-12-01T21:05:36.427Z,81.70
2018-12-01T21:08:09.687Z,87.30
2018-12-01T21:10:42.735Z,90.33
2018-12-01T21:13:14.886Z,90.70
2018-12-01T21:15:44.491Z,86.93
2018-12-01T21:18:14.574Z,96.03
2018-12-01T21:20:45.425Z,93.63
2018-12-01T21:23:16.537Z,91.10
2018-12-01T21:25:50.638Z,93.50
2018-12-01T21:28:22.852Z,90.40
2018-12-01T21:30:54.220Z,87.13
2018-12-01T21:34:52.356Z,96.63
2018-12-01T21:37:22.698Z,98.27
2018-12-01T21:39:54.598Z,98.70
2018-12-01T21:42:29.565Z,87.70
2018-12-01T21:45:02.889Z,90.27
2018-12-01T21:47:32.648Z,99.03
2018-12-01T21:50:02.647Z,93.70
2018-12-01T21:52:33.876Z,89.03
2018-12-01T21:55:06.546Z,97.63
2018-12-01T21:57:45.446Z,89.17
2018-12-01T22:00:21.957Z,87.60
2018-12-01T22:02:55.903Z,94.37
2018-12-01T22:05:32.787Z,90.73
2018-12-01T22:08:07.952Z,93.43
2018-12-01T22:10:41.796Z,95.47
2018-12-01T22:13:15.941Z,93.93
2018-12-01T22:15:47.916Z,103.47
2018-12-01T22:18:18.728Z,91.93
2018-12-01T22:20:48.653Z,90.37
2018-12-01T22:23:20.490Z,89.47
2018-12-01T22:25:51.470Z,100.40
2018-12-01T22:28:21.941Z,96.20
2018-12-01T22:30:53.209Z,95.67
2018-12-01T22:33:26.077Z,88.17
2018-12-01T22:35:56.574Z,86.33
2018-12-01T22:38:30.449Z,100.97
2018-12-01T22:41:06.951Z,85.33
2018-12-01T22:43:38.186Z,98.40
2018-12-01T22:46:09.141Z,92.63
2018-12-01T22:48:39.842Z,94.00
2018-12-01T22:51:13.554Z,92.97
2018-12-01T22:53:50.245Z,86.43
2018-12-01T22:56:28.766Z,98.87
2018-12-01T22:58:55.160Z,84.63
2018-12-01T23:01:26.005Z,93.30
2018-12-01T23:03:56.738Z,91.13
2018-12-01T23:06:30.067Z,92.43
2018-12-01T23:09:00.660Z,96.83
2018-12-01T23:11:31.643Z,95.63
2018-12-01T23:14:02.529Z,98.33
2018-12-01T23:16:32.827Z,96.00
2018-12-01T23:19:02.629Z,93.63
2018-12-01T23:21:33.767Z,94.67
2018-12-01T23:24:04.176Z,94.87
2018-12-01T23:26:37.202Z,101.70
2018-12-01T23:29:08.040Z,97.50
2018-12-01T23:31:38.764Z,97.37
2018-12-01T23:34:11.388Z,99.50
2018-12-01T23:36:44.078Z,87.13
2018-12-01T23:39:17.729Z,92.23
2018-12-01T23:41:49.316Z,95.47
2018-12-01T23:44:27.508Z,88.50
2018-12-01T23:46:57.408Z,96.37
2018-12-01T23:49:31.485Z,97.57
2018-12-01T23:52:02.618Z,84.43
2018-12-01T23:54:33.376Z,93.63
2018-12-01T23:57:03.159Z,95.83
2018-12-01T23:59:34.237Z,92.93
